Time;durP1;ratioP1;P1;durP2;ratioP2;P2;SDS_P1;SDS_P2;PMS_P1;PMS_P2;Temp;Humidity;BMP_temperature;BMP_pressure;BME280_temperature;BME280_humidity;BME280_pressure;Samples;Min_cycle;Max_cycle;Signal;HPM_P1;HPM_P2
2022/07/24 00:02:20;;;;;;;4.55;4.25;;;27.00;98.00;;;;;;6209016;28;89527;-64
2022/07/24 00:05:22;;;;;;;4.30;4.00;;;27.00;98.00;;;;;;6208866;28;89074;-64
2022/07/24 00:08:24;;;;;;;4.38;4.07;;;27.00;98.00;;;;;;6201632;28;89480;-64
2022/07/24 00:11:26;;;;;;;4.55;4.15;;;27.00;98.00;;;;;;6194509;28;89067;-64
2022/07/24 00:14:30;;;;;;;4.78;4.38;;;27.00;98.00;;;;;;6207847;28;88275;-64
2022/07/24 00:17:32;;;;;;;4.47;4.18;;;27.00;98.00;;;;;;6209194;28;87979;-64
2022/07/24 00:20:34;;;;;;;4.20;3.90;;;27.00;98.00;;;;;;6207982;28;89078;-64
2022/07/24 00:23:36;;;;;;;4.50;4.20;;;27.00;98.00;;;;;;6184528;28;89973;-64
2022/07/24 00:26:38;;;;;;;4.55;4.18;;;27.00;98.00;;;;;;6193847;28;89056;-64
2022/07/24 00:29:42;;;;;;;4.60;4.30;;;27.00;98.00;;;;;;6198631;28;89082;-63
2022/07/24 00:32:44;;;;;;;4.60;4.20;;;27.00;98.00;;;;;;6196305;28;88768;-64
2022/07/24 00:35:45;;;;;;;4.57;4.20;;;27.00;98.00;;;;;;6201918;28;89093;-64
2022/07/24 00:38:47;;;;;;;4.72;4.32;;;27.10;98.00;;;;;;6207500;28;89233;-64
2022/07/24 00:41:52;;;;;;;5.03;4.63;;;27.00;98.00;;;;;;6207463;28;88209;-64
2022/07/24 00:44:55;;;;;;;4.80;4.40;;;27.00;98.00;;;;;;6207814;28;88472;-64
2022/07/24 00:47:57;;;;;;;5.03;4.63;;;27.00;98.00;;;;;;6207656;28;90034;-64
2022/07/24 00:50:59;;;;;;;4.47;4.18;;;27.00;98.00;;;;;;6206548;28;89165;-64
2022/07/24 00:54:03;;;;;;;4.93;4.53;;;27.00;98.00;;;;;;6204057;28;90397;-64
2022/07/24 00:57:05;;;;;;;5.00;4.60;;;27.00;98.00;;;;;;6204879;28;89085;-64
2022/07/24 01:00:10;;;;;;;4.38;4.07;;;27.00;98.00;;;;;;6189419;28;89020;-64
2022/07/24 01:03:12;;;;;;;4.75;4.45;;;27.00;98.00;;;;;;6191211;28;89086;-64
2022/07/24 01:06:15;;;;;;;5.00;4.60;;;27.00;98.00;;;;;;6196464;28;89093;-64
2022/07/24 01:09:18;;;;;;;5.47;4.97;;;27.10;98.00;;;;;;6200772;28;90660;-64
2022/07/24 01:12:20;;;;;;;4.57;4.28;;;27.10;98.10;;;;;;6202994;28;89086;-64
2022/07/24 01:15:23;;;;;;;4.75;4.40;;;27.00;98.00;;;;;;6205993;28;88283;-64
2022/07/24 01:18:25;;;;;;;5.10;4.70;;;27.00;98.00;;;;;;6200866;28;90539;-64
2022/07/24 01:21:29;;;;;;;4.93;4.53;;;27.00;98.00;;;;;;6204720;28;89391;-64
2022/07/24 01:24:31;;;;;;;4.88;4.47;;;27.00;98.00;;;;;;6203312;28;90047;-64
2022/07/24 01:27:33;;;;;;;5.15;4.75;;;27.00;98.00;;;;;;6207547;28;89133;-64
2022/07/24 01:30:36;;;;;;;5.05;4.65;;;27.00;98.00;;;;;;6194150;28;89099;-64
2022/07/24 01:33:38;;;;;;;5.20;4.80;;;27.00;98.00;;;;;;6202791;28;89152;-64
2022/07/24 01:36:42;;;;;;;4.95;4.65;;;27.00;98.00;;;;;;6206956;28;89470;-64
2022/07/24 01:39:44;;;;;;;5.22;4.82;;;27.00;98.00;;;;;;6206860;28;89373;-64
2022/07/24 01:42:46;;;;;;;4.85;4.45;;;27.00;98.00;;;;;;6193494;28;89060;-64
2022/07/24 01:45:48;;;;;;;5.15;4.72;;;27.00;98.00;;;;;;6185045;28;88330;-64
2022/07/24 01:48:50;;;;;;;5.00;4.60;;;27.00;98.00;;;;;;6201766;28;88426;-64
2022/07/24 01:51:54;;;;;;;5.28;4.88;;;27.00;98.00;;;;;;6190951;28;89019;-64
2022/07/24 01:54:56;;;;;;;5.38;4.97;;;27.00;98.00;;;;;;6204581;28;90054;-64
2022/07/24 01:57:58;;;;;;;4.88;4.47;;;27.00;98.00;;;;;;6204691;28;89007;-64
2022/07/24 02:01:00;;;;;;;5.18;4.78;;;27.00;98.00;;;;;;6198562;28;89045;-64
2022/07/24 02:04:02;;;;;;;5.13;4.72;;;27.00;98.00;;;;;;6205559;28;89111;-64
2022/07/24 02:07:06;;;;;;;5.13;4.72;;;27.00;98.00;;;;;;6199264;28;89265;-64
2022/07/24 02:10:12;;;;;;;5.40;5.00;;;27.00;98.00;;;;;;6198543;28;89223;-64
2022/07/24 02:13:14;;;;;;;5.30;4.90;;;27.00;98.00;;;;;;6200083;28;88390;-64
2022/07/24 02:16:16;;;;;;;5.40;5.00;;;27.00;98.00;;;;;;6200184;28;88659;-64
2022/07/24 02:19:18;;;;;;;5.40;4.90;;;27.00;98.00;;;;;;6205810;28;89211;-64
2022/07/24 02:22:21;;;;;;;5.38;4.97;;;27.00;98.00;;;;;;6204074;28;89094;-64
2022/07/24 02:25:23;;;;;;;4.85;4.50;;;27.00;98.00;;;;;;6190867;28;90053;-64
2022/07/24 02:28:25;;;;;;;5.10;4.70;;;27.00;98.00;;;;;;6204798;28;89091;-64
2022/07/24 02:31:28;;;;;;;5.20;4.80;;;27.00;98.00;;;;;;6200720;28;89493;-64
2022/07/24 02:34:30;;;;;;;5.30;4.90;;;27.00;98.00;;;;;;6206782;28;88935;-64
2022/07/24 02:37:33;;;;;;;5.07;4.68;;;27.00;98.00;;;;;;6210787;28;87799;-64
2022/07/24 02:40:35;;;;;;;5.20;4.80;;;27.00;98.00;;;;;;6199194;28;89560;-64
2022/07/24 02:43:37;;;;;;;5.07;4.68;;;27.00;98.00;;;;;;6206833;28;89025;-64
2022/07/24 02:46:39;;;;;;;4.63;4.30;;;27.00;98.00;;;;;;6209775;28;88675;-64
2022/07/24 02:49:41;;;;;;;5.35;4.95;;;27.00;98.00;;;;;;6204368;28;89422;-64
2022/07/24 02:52:45;;;;;;;5.07;4.68;;;27.00;98.00;;;;;;6202872;28;89114;-64
2022/07/24 02:55:47;;;;;;;5.40;5.00;;;27.00;98.00;;;;;;6209122;28;90008;-64
2022/07/24 02:58:49;;;;;;;5.25;4.85;;;27.00;98.00;;;;;;6196104;28;88881;-64
2022/07/24 03:01:51;;;;;;;5.57;5.13;;;27.00;98.00;;;;;;6205346;28;89436;-64
2022/07/24 03:04:53;;;;;;;5.30;4.90;;;27.00;98.00;;;;;;6198428;28;89079;-64
2022/07/24 03:07:57;;;;;;;5.13;4.72;;;27.00;98.00;;;;;;6197852;28;89048;-64
2022/07/24 03:10:59;;;;;;;5.38;4.97;;;27.00;98.00;;;;;;6185404;28;89289;-64
2022/07/24 03:14:01;;;;;;;5.40;5.00;;;27.00;97.90;;;;;;6209876;28;89458;-64
2022/07/24 03:17:03;;;;;;;5.30;4.90;;;27.00;98.00;;;;;;6198162;28;88734;-64
2022/07/24 03:20:06;;;;;;;4.97;4.57;;;27.00;98.00;;;;;;6207784;28;88137;-64
2022/07/24 03:23:10;;;;;;;5.40;4.97;;;27.00;98.00;;;;;;6209273;28;89087;-63
2022/07/24 03:26:12;;;;;;;5.30;4.90;;;27.00;98.00;;;;;;6208565;28;88751;-64
2022/07/24 03:29:14;;;;;;;5.00;4.60;;;27.00;98.00;;;;;;6209053;28;89000;-63
2022/07/24 03:32:16;;;;;;;5.13;4.72;;;27.00;98.00;;;;;;6209020;28;89297;-64
2022/07/24 03:35:18;;;;;;;5.10;4.70;;;27.00;98.00;;;;;;6194212;28;89162;-64
2022/07/24 03:38:21;;;;;;;5.35;4.95;;;27.00;98.00;;;;;;6184408;28;89322;-64
2022/07/24 03:41:23;;;;;;;5.32;4.93;;;27.00;98.00;;;;;;6209242;28;89145;-64
2022/07/24 03:44:25;;;;;;;5.60;5.20;;;27.00;98.00;;;;;;6198522;28;89006;-63
2022/07/24 03:47:27;;;;;;;5.40;5.00;;;27.00;98.00;;;;;;6206251;28;87560;-64
2022/07/24 03:50:29;;;;;;;5.35;4.95;;;27.00;98.00;;;;;;6208315;28;89158;-64
2022/07/24 03:53:33;;;;;;;5.40;4.90;;;27.00;98.00;;;;;;6206792;28;88309;-64
2022/07/24 03:56:35;;;;;;;4.82;4.53;;;27.00;98.00;;;;;;6207851;28;90762;-64
2022/07/24 03:59:37;;;;;;;5.40;5.00;;;27.00;98.00;;;;;;6207883;28;89061;-64
2022/07/24 04:02:39;;;;;;;5.30;4.90;;;27.00;98.00;;;;;;6208963;28;89115;-64
2022/07/24 04:05:41;;;;;;;5.30;4.90;;;27.00;98.00;;;;;;6191732;28;89240;-64
2022/07/24 04:08:45;;;;;;;4.82;4.43;;;27.00;98.00;;;;;;6196159;28;89063;-64
2022/07/24 04:11:47;;;;;;;5.57;5.07;;;27.00;98.00;;;;;;6200891;28;89289;-64
2022/07/24 04:14:49;;;;;;;5.30;4.90;;;27.00;98.00;;;;;;6200094;28;88933;-64
2022/07/24 04:17:51;;;;;;;5.45;4.95;;;27.00;98.00;;;;;;6204041;28;88510;-63
2022/07/24 04:20:53;;;;;;;5.20;4.75;;;27.00;98.00;;;;;;6201927;28;88732;-64
2022/07/24 04:23:57;;;;;;;5.28;4.88;;;27.00;98.00;;;;;;6206995;28;89095;-64
2022/07/24 04:26:59;;;;;;;5.28;4.88;;;27.00;98.00;;;;;;6185412;28;89992;-64
2022/07/24 04:30:01;;;;;;;5.82;5.32;;;27.00;98.00;;;;;;6199094;28;89479;-64
2022/07/24 04:33:03;;;;;;;5.40;5.00;;;27.00;98.00;;;;;;6198723;28;89189;-64
2022/07/24 04:36:06;;;;;;;5.72;5.30;;;27.00;98.00;;;;;;6197938;28;89130;-64
2022/07/24 04:39:09;;;;;;;5.57;5.07;;;27.00;98.00;;;;;;6202380;28;89490;-64
2022/07/24 04:42:11;;;;;;;5.47;5.07;;;27.00;98.00;;;;;;6204002;28;89075;-64
2022/07/24 04:45:13;;;;;;;5.22;4.82;;;27.00;98.00;;;;;;6196512;28;89038;-64
2022/07/24 04:48:15;;;;;;;5.40;5.00;;;27.00;98.00;;;;;;6184449;28;88326;-64
2022/07/24 04:51:17;;;;;;;5.30;4.80;;;27.00;98.00;;;;;;6183509;28;89116;-64
2022/07/24 04:54:20;;;;;;;5.10;4.70;;;27.00;98.00;;;;;;6196391;28;89099;-64
2022/07/24 04:57:22;;;;;;;5.15;4.75;;;27.00;98.00;;;;;;6199907;28;89270;-64
2022/07/24 05:00:24;;;;;;;5.20;4.80;;;27.00;97.90;;;;;;6206405;28;89048;-64
2022/07/24 05:03:26;;;;;;;5.28;4.88;;;27.00;97.90;;;;;;6204369;28;89032;-64
2022/07/24 05:06:28;;;;;;;5.40;5.00;;;27.00;97.90;;;;;;6197923;28;89086;-64
2022/07/24 05:09:32;;;;;;;5.85;5.35;;;27.00;97.90;;;;;;6204088;28;89036;-64
2022/07/24 05:12:34;;;;;;;5.55;5.15;;;27.00;97.90;;;;;;6195735;28;88310;-64
2022/07/24 05:15:36;;;;;;;5.70;5.20;;;27.10;97.90;;;;;;6204078;28;89229;-64
2022/07/24 05:18:38;;;;;;;5.35;4.95;;;27.00;97.80;;;;;;6193114;28;88637;-64
2022/07/24 05:21:40;;;;;;;5.88;5.28;;;27.00;97.80;;;;;;6198022;28;89042;-64
2022/07/24 05:24:44;;;;;;;5.55;5.15;;;27.00;97.80;;;;;;6207028;28;91849;-64
2022/07/24 05:27:46;;;;;;;5.68;5.18;;;27.00;97.80;;;;;;6192540;28;90046;-64
2022/07/24 05:30:48;;;;;;;5.57;5.18;;;27.00;97.80;;;;;;6205255;28;89072;-64
2022/07/24 05:33:50;;;;;;;5.55;5.07;;;27.00;97.80;;;;;;6207095;28;89153;-64
2022/07/24 05:36:52;;;;;;;5.47;5.05;;;26.90;97.80;;;;;;6202564;28;89232;-64
2022/07/24 05:39:55;;;;;;;5.45;5.05;;;27.10;97.90;;;;;;6193414;28;89134;-64
2022/07/24 05:42:57;;;;;;;5.47;5.07;;;27.10;97.90;;;;;;6181759;28;89398;-64
2022/07/24 05:45:59;;;;;;;5.30;4.90;;;27.00;97.90;;;;;;6203345;28;89168;-64
2022/07/24 05:49:01;;;;;;;5.85;5.38;;;27.10;97.90;;;;;;6187140;28;88340;-64
2022/07/24 05:52:03;;;;;;;5.55;5.15;;;27.10;97.90;;;;;;6182595;28;89110;-64
2022/07/24 05:55:08;;;;;;;5.20;4.80;;;27.10;97.90;;;;;;6197996;28;89047;-64
2022/07/24 05:58:10;;;;;;;5.57;5.18;;;27.00;97.80;;;;;;6203736;28;90294;-64
2022/07/24 06:01:12;;;;;;;5.72;5.32;;;27.00;98.20;;;;;;6204759;28;89435;-64
2022/07/24 06:04:14;;;;;;;5.68;5.28;;;27.10;97.90;;;;;;6206022;28;89282;-64
2022/07/24 06:07:16;;;;;;;5.80;5.40;;;27.10;97.80;;;;;;6196352;28;88970;-64
2022/07/24 06:10:20;;;;;;;5.28;4.88;;;27.10;97.90;;;;;;6203704;28;89709;-64
2022/07/24 06:13:22;;;;;;;5.60;5.20;;;27.10;97.90;;;;;;6205278;28;89040;-64
2022/07/24 06:16:24;;;;;;;5.40;5.00;;;27.10;97.90;;;;;;6204587;28;89060;-64
2022/07/24 06:19:26;;;;;;;5.47;5.07;;;27.10;97.90;;;;;;6204193;28;88325;-64
2022/07/24 06:22:28;;;;;;;5.30;4.90;;;27.10;97.90;;;;;;6205702;28;89030;-64
2022/07/24 06:25:31;;;;;;;5.78;5.38;;;27.10;97.90;;;;;;6203004;28;89040;-64
2022/07/24 06:28:33;;;;;;;5.47;5.07;;;27.10;97.90;;;;;;6200620;28;90015;-64
2022/07/24 06:31:35;;;;;;;5.28;4.88;;;27.10;98.00;;;;;;6189832;28;88941;-64
2022/07/24 06:34:37;;;;;;;5.80;5.30;;;27.10;98.00;;;;;;6203035;28;89415;-64
2022/07/24 06:37:39;;;;;;;5.90;5.40;;;27.10;98.00;;;;;;6203608;28;89392;-64
2022/07/24 06:40:43;;;;;;;5.60;5.20;;;27.10;98.00;;;;;;6196452;28;89414;-64
2022/07/24 06:43:45;;;;;;;5.57;5.18;;;27.10;98.00;;;;;;6197520;28;87873;-64
2022/07/24 06:46:47;;;;;;;5.68;5.18;;;27.10;98.00;;;;;;6190916;28;89107;-64
2022/07/24 06:49:49;;;;;;;5.45;5.05;;;27.10;98.00;;;;;;6193933;28;89220;-64
2022/07/24 06:52:51;;;;;;;5.90;5.40;;;27.10;98.10;;;;;;6204260;28;88046;-64
2022/07/24 06:55:55;;;;;;;5.75;5.35;;;27.10;98.10;;;;;;6194825;28;89089;-64
2022/07/24 06:58:58;;;;;;;5.50;5.10;;;27.10;98.10;;;;;;6202662;28;90060;-64
2022/07/24 07:02:00;;;;;;;6.00;5.60;;;27.10;98.10;;;;;;6203349;28;89411;-64
2022/07/24 07:05:02;;;;;;;5.43;5.03;;;27.10;98.10;;;;;;6188065;28;89140;-64
2022/07/24 07:08:04;;;;;;;5.38;4.97;;;27.10;98.10;;;;;;6196844;28;89063;-64
2022/07/24 07:11:08;;;;;;;5.72;5.22;;;27.10;98.10;;;;;;6204979;28;89069;-64
2022/07/24 07:14:10;;;;;;;6.03;5.53;;;27.10;98.10;;;;;;6205430;28;89401;-64
2022/07/24 07:17:12;;;;;;;5.60;5.20;;;27.10;98.10;;;;;;6204443;28;89214;-64
2022/07/24 07:20:14;;;;;;;5.80;5.32;;;27.10;98.10;;;;;;6188589;28;89418;-64
2022/07/24 07:23:16;;;;;;;6.13;5.53;;;27.10;98.10;;;;;;6183937;28;89134;-64
2022/07/24 07:26:19;;;;;;;6.20;5.70;;;27.20;98.20;;;;;;6189530;28;89444;-65
2022/07/24 07:29:21;;;;;;;5.32;4.90;;;27.20;98.10;;;;;;6205399;28;90052;-64
2022/07/24 07:32:24;;;;;;;6.15;5.65;;;27.10;98.10;;;;;;6197735;28;89077;-65
2022/07/24 07:35:26;;;;;;;5.90;5.40;;;27.10;98.20;;;;;;6185519;28;89471;-64
2022/07/24 07:38:28;;;;;;;5.80;5.30;;;27.10;98.20;;;;;;6206966;28;89182;-64
2022/07/24 07:41:31;;;;;;;5.95;5.50;;;27.10;98.20;;;;;;6208903;28;87988;-64
2022/07/24 07:44:33;;;;;;;5.75;5.35;;;27.10;98.30;;;;;;6207665;28;87968;-64
2022/07/24 07:47:37;;;;;;;5.88;5.40;;;27.10;98.30;;;;;;6207995;28;89117;-64
2022/07/24 07:50:39;;;;;;;6.03;5.53;;;27.10;98.20;;;;;;6189412;28;88334;-64
2022/07/24 07:53:41;;;;;;;5.90;5.50;;;27.20;98.30;;;;;;6197444;28;89148;-64
2022/07/24 07:56:44;;;;;;;6.38;5.78;;;27.10;98.20;;;;;;6199361;28;89171;-64
2022/07/24 07:59:46;;;;;;;6.25;5.75;;;27.20;98.30;;;;;;6205955;28;90013;-64
2022/07/24 08:02:48;;;;;;;5.72;5.32;;;27.20;98.70;;;;;;6209381;28;89175;-64
2022/07/24 08:05:51;;;;;;;6.13;5.63;;;27.20;98.30;;;;;;6207373;28;89404;-64
2022/07/24 08:08:53;;;;;;;5.60;5.20;;;27.20;98.30;;;;;;6207158;28;87961;-64
2022/07/24 08:11:56;;;;;;;5.80;5.40;;;27.20;98.30;;;;;;6195726;28;89018;-64
2022/07/24 08:14:59;;;;;;;6.38;5.88;;;27.20;98.30;;;;;;6207761;28;89158;-64
2022/07/24 08:18:01;;;;;;;6.60;6.10;;;27.20;98.30;;;;;;6207849;28;89203;-65
2022/07/24 08:21:03;;;;;;;6.10;5.60;;;27.20;98.30;;;;;;6208357;28;88456;-64
2022/07/24 08:24:06;;;;;;;5.75;5.35;;;27.20;98.30;;;;;;6194432;28;89042;-64
2022/07/24 08:27:09;;;;;;;5.88;5.38;;;27.10;98.30;;;;;;6206131;28;89267;-64
2022/07/24 08:30:11;;;;;;;5.88;5.38;;;27.20;98.40;;;;;;6193809;28;90704;-64
2022/07/24 08:33:13;;;;;;;6.18;5.68;;;27.20;98.40;;;;;;6201940;28;89852;-65
2022/07/24 08:36:16;;;;;;;6.10;5.60;;;27.20;98.40;;;;;;6201360;28;89048;-64
2022/07/24 08:39:18;;;;;;;6.07;5.57;;;27.20;98.40;;;;;;6208388;28;89020;-64
2022/07/24 08:42:21;;;;;;;6.40;5.90;;;27.20;98.40;;;;;;6206865;28;87981;-64
2022/07/24 08:45:23;;;;;;;6.50;6.00;;;27.20;98.80;;;;;;6207618;28;89143;-64
2022/07/24 08:48:27;;;;;;;6.22;5.70;;;27.20;98.40;;;;;;6194557;28;89135;-64
2022/07/24 08:51:33;;;;;;;5.80;5.40;;;27.20;98.40;;;;;;6194056;28;88395;-64
2022/07/24 08:54:35;;;;;;;5.90;5.50;;;27.20;98.40;;;;;;6183718;28;89029;-64
2022/07/24 08:57:39;;;;;;;5.95;5.45;;;27.20;98.30;;;;;;6207402;28;90350;-66
2022/07/24 09:00:41;;;;;;;6.35;5.85;;;27.20;98.30;;;;;;6204900;28;90010;-64
2022/07/24 09:03:44;;;;;;;6.13;5.63;;;27.20;98.30;;;;;;6194388;28;89060;-64
2022/07/24 09:06:57;;;;;;;6.18;5.68;;;27.20;98.20;;;;;;6193894;28;89095;-65
2022/07/24 09:10:00;;;;;;;6.07;5.57;;;27.20;98.20;;;;;;6201495;28;89729;-64
2022/07/24 09:13:15;;;;;;;6.22;5.72;;;27.20;98.20;;;;;;6182640;28;89181;-64
2022/07/24 09:16:23;;;;;;;6.45;5.95;;;27.20;98.20;;;;;;6195976;28;89420;-64
2022/07/24 09:19:25;;;;;;;6.30;5.80;;;27.10;98.20;;;;;;6195259;28;89297;-65
2022/07/24 09:22:33;;;;;;;6.30;5.80;;;27.20;98.30;;;;;;6193593;28;88715;-64
2022/07/24 09:25:36;;;;;;;6.80;6.20;;;27.20;98.40;;;;;;6207297;28;89419;-64
2022/07/24 09:28:51;;;;;;;6.60;6.03;;;27.10;98.50;;;;;;6205187;28;89131;-64
2022/07/24 09:31:55;;;;;;;6.55;6.05;;;27.20;98.50;;;;;;6205563;28;90085;-65
2022/07/24 09:34:57;;;;;;;6.28;5.78;;;27.20;98.50;;;;;;6207502;28;89458;-64
2022/07/24 09:38:00;;;;;;;6.60;6.10;;;27.20;98.50;;;;;;6205794;28;89349;-64
2022/07/24 09:41:03;;;;;;;6.30;5.80;;;27.20;98.50;;;;;;6205876;28;89548;-64
2022/07/24 09:44:08;;;;;;;6.97;6.38;;;27.20;98.40;;;;;;6205386;28;89030;-64
2022/07/24 09:47:11;;;;;;;6.22;5.72;;;27.20;98.40;;;;;;6193734;28;90073;-64
2022/07/24 09:50:16;;;;;;;6.30;5.80;;;27.20;98.40;;;;;;6203858;28;89073;-64
2022/07/24 09:53:20;;;;;;;6.28;5.78;;;27.20;98.30;;;;;;6194408;28;88466;-64
2022/07/24 09:56:22;;;;;;;6.32;5.82;;;27.20;98.30;;;;;;6193962;28;89011;-64
2022/07/24 09:59:29;;;;;;;6.82;6.32;;;27.20;98.30;;;;;;6206665;28;88955;-64
2022/07/24 10:02:33;;;;;;;6.30;5.80;;;27.20;98.30;;;;;;6204670;28;90371;-64
2022/07/24 10:05:37;;;;;;;6.50;6.00;;;27.20;98.30;;;;;;6205891;28;89177;-64
2022/07/24 10:08:41;;;;;;;6.28;5.78;;;27.20;98.40;;;;;;6205805;28;89113;-64
2022/07/24 10:11:47;;;;;;;6.47;5.97;;;27.20;98.60;;;;;;6199290;28;89340;-64
2022/07/24 10:14:53;;;;;;;6.55;6.05;;;27.20;98.70;;;;;;6186881;28;89955;-64
2022/07/24 10:18:17;;;;;;;6.80;6.30;;;27.20;98.70;;;;;;6205833;28;89044;-64
2022/07/24 10:21:20;;;;;;;6.15;5.65;;;27.20;98.70;;;;;;6188334;28;89035;-64
2022/07/24 10:24:53;;;;;;;6.68;6.18;;;27.20;98.60;;;;;;6195474;28;88443;-65
2022/07/24 10:27:59;;;;;;;6.57;6.07;;;27.20;98.60;;;;;;6193121;28;89326;-64
2022/07/24 10:31:04;;;;;;;6.15;5.65;;;27.20;98.60;;;;;;6194002;28;89202;-64
2022/07/24 10:34:13;;;;;;;6.43;5.93;;;27.20;98.50;;;;;;6204626;28;90280;-64
2022/07/24 10:37:23;;;;;;;6.40;5.90;;;27.20;98.50;;;;;;6193038;28;88018;-64
2022/07/24 10:40:31;;;;;;;6.38;5.88;;;27.20;98.50;;;;;;6193208;28;89449;-64
2022/07/24 10:43:32;;;;;;;6.30;5.80;;;27.20;98.50;;;;;;6203409;28;90780;-64
2022/07/24 10:46:58;;;;;;;6.10;5.60;;;27.20;98.50;;;;;;6205734;28;89538;-64
2022/07/24 10:50:00;;;;;;;6.30;5.82;;;27.20;98.50;;;;;;6201155;28;89121;-64
2022/07/24 10:53:21;;;;;;;6.32;5.82;;;27.20;98.60;;;;;;6193368;28;89296;-64
2022/07/24 10:56:26;;;;;;;6.45;5.90;;;27.20;98.70;;;;;;6205751;28;88407;-65
2022/07/24 10:59:36;;;;;;;6.32;5.82;;;27.20;98.70;;;;;;6194100;28;89106;-65
2022/07/24 11:02:56;;;;;;;6.20;5.70;;;27.20;98.80;;;;;;6209247;28;89066;-64
2022/07/24 11:06:06;;;;;;;6.00;5.50;;;27.20;98.80;;;;;;6208141;28;89820;-64
2022/07/24 11:09:08;;;;;;;5.90;5.40;;;27.20;98.70;;;;;;6206463;28;89106;-64
2022/07/24 11:12:10;;;;;;;6.50;6.00;;;27.20;98.70;;;;;;6202290;28;88988;-64
2022/07/24 11:18:33;;;;;;;6.25;5.75;;;27.20;98.60;;;;;;6193852;28;87337;-64
2022/07/24 11:21:37;;;;;;;5.90;5.40;;;27.20;98.60;;;;;;6196936;28;89406;-64
2022/07/24 11:25:04;;;;;;;6.50;6.00;;;27.20;98.50;;;;;;6206483;28;89151;-65
2022/07/24 11:28:14;;;;;;;5.80;5.40;;;27.20;98.50;;;;;;6194604;28;88553;-64
2022/07/24 11:31:17;;;;;;;6.45;5.85;;;27.20;98.50;;;;;;6208950;28;89063;-64
2022/07/24 11:34:19;;;;;;;5.65;5.25;;;27.20;98.50;;;;;;6196454;28;89143;-64
2022/07/24 11:37:24;;;;;;;6.25;5.82;;;27.20;98.50;;;;;;6205868;28;90107;-64
2022/07/24 11:40:26;;;;;;;6.45;5.95;;;27.20;98.50;;;;;;6206270;28;89071;-64
2022/07/24 11:43:29;;;;;;;6.15;5.75;;;27.20;98.60;;;;;;6196980;28;87981;-64
2022/07/24 11:46:35;;;;;;;6.05;5.65;;;27.20;98.70;;;;;;6196834;28;88037;-64
2022/07/24 11:49:41;;;;;;;6.25;5.75;;;27.20;98.70;;;;;;6197177;28;89100;-65
2022/07/24 11:52:43;;;;;;;5.85;5.43;;;27.20;98.70;;;;;;6184514;28;90089;-64
2022/07/24 11:55:45;;;;;;;6.47;5.95;;;27.20;98.70;;;;;;6197656;28;90878;-64
2022/07/24 11:58:49;;;;;;;6.10;5.70;;;27.20;98.70;;;;;;6205188;28;88367;-64
2022/07/24 12:01:51;;;;;;;5.85;5.45;;;27.20;98.60;;;;;;6208092;28;89524;-64
2022/07/24 12:04:53;;;;;;;6.25;5.75;;;27.20;98.60;;;;;;6192491;28;89255;-64
2022/07/24 12:07:57;;;;;;;6.30;5.80;;;27.20;98.60;;;;;;6184826;28;89731;-64
2022/07/24 12:11:01;;;;;;;6.13;5.63;;;27.30;98.60;;;;;;6207567;28;89137;-65
2022/07/24 12:14:06;;;;;;;5.70;5.30;;;27.20;98.50;;;;;;6208312;28;89413;-64
2022/07/24 12:17:08;;;;;;;6.00;5.50;;;27.20;98.50;;;;;;6206675;28;89125;-64
2022/07/24 12:20:10;;;;;;;5.93;5.50;;;27.20;98.40;;;;;;6189931;28;89058;-65
2022/07/24 12:23:14;;;;;;;6.00;5.50;;;27.20;98.40;;;;;;6197405;28;87867;-65
2022/07/24 12:26:16;;;;;;;5.60;5.20;;;27.20;98.50;;;;;;6196741;28;89440;-64
2022/07/24 12:29:20;;;;;;;6.20;5.70;;;27.20;98.50;;;;;;6197117;28;88731;-64
2022/07/24 12:32:22;;;;;;;6.25;5.70;;;27.20;98.60;;;;;;6195867;28;89135;-65
2022/07/24 12:35:26;;;;;;;6.35;5.85;;;27.20;98.60;;;;;;6207855;28;89364;-65
2022/07/24 12:38:29;;;;;;;5.70;5.30;;;27.20;98.60;;;;;;6206764;28;90062;-64
2022/07/24 12:41:32;;;;;;;6.28;5.78;;;27.20;98.50;;;;;;6208578;28;89118;-64
2022/07/24 12:44:44;;;;;;;6.10;5.60;;;27.20;98.50;;;;;;6194249;28;89086;-65
2022/07/24 12:48:16;;;;;;;6.10;5.70;;;27.20;98.50;;;;;;6207242;28;89336;-64
2022/07/24 12:51:18;;;;;;;6.32;5.80;;;27.20;98.50;;;;;;6207954;28;89037;-65
2022/07/24 12:54:22;;;;;;;5.95;5.45;;;27.20;98.40;;;;;;6206809;28;89036;-65
2022/07/24 12:57:24;;;;;;;5.78;5.38;;;27.20;98.40;;;;;;6205282;28;89102;-65
2022/07/24 13:00:27;;;;;;;5.95;5.45;;;27.20;98.40;;;;;;6205183;28;89205;-64
2022/07/24 13:03:29;;;;;;;6.15;5.72;;;27.20;98.40;;;;;;6207563;28;89077;-64
2022/07/24 13:06:36;;;;;;;6.00;5.50;;;27.20;98.30;;;;;;6194310;28;89080;-65
2022/07/24 13:09:38;;;;;;;5.93;5.53;;;27.20;98.30;;;;;;6193969;28;88945;-64
2022/07/24 13:12:40;;;;;;;6.28;5.78;;;27.20;98.30;;;;;;6193655;28;89116;-64
2022/07/24 13:15:43;;;;;;;6.20;5.70;;;27.20;98.40;;;;;;6208302;28;89122;-65
2022/07/24 13:18:46;;;;;;;5.70;5.20;;;27.20;98.50;;;;;;6195147;28;89026;-65
2022/07/24 13:21:49;;;;;;;6.07;5.57;;;27.20;98.50;;;;;;6195816;28;89071;-65
2022/07/24 13:24:50;;;;;;;5.78;5.38;;;27.20;98.50;;;;;;6198853;28;89628;-65
2022/07/24 13:27:52;;;;;;;6.47;5.97;;;27.20;98.40;;;;;;6195759;28;89200;-64
2022/07/24 13:30:56;;;;;;;5.75;5.35;;;27.20;98.40;;;;;;6184794;28;88412;-65
2022/07/24 13:33:58;;;;;;;5.75;5.35;;;27.30;98.40;;;;;;6207161;28;89353;-65
2022/07/24 13:37:00;;;;;;;5.70;5.22;;;27.30;98.80;;;;;;6206208;28;89146;-64
2022/07/24 13:40:04;;;;;;;6.13;5.63;;;27.30;98.40;;;;;;6206285;28;90028;-65
2022/07/24 13:43:06;;;;;;;6.97;6.38;;;27.30;98.00;;;;;;6206340;28;89388;-66
2022/07/24 13:46:09;;;;;;;7.30;6.70;;;27.30;94.10;;;;;;6206461;28;89038;-65
2022/07/24 13:49:14;;;;;;;6.90;6.32;;;27.20;93.70;;;;;;6203546;28;87886;-66
2022/07/24 13:52:16;;;;;;;7.07;6.47;;;27.30;94.80;;;;;;6192909;28;89097;-66
2022/07/24 13:55:18;;;;;;;6.78;6.03;;;27.30;92.30;;;;;;6193940;28;89065;-65
2022/07/24 13:58:20;;;;;;;7.07;6.47;;;27.30;92.30;;;;;;6197941;28;89152;-65
2022/07/24 14:01:23;;;;;;;7.40;6.80;;;27.30;92.70;;;;;;6205785;28;88382;-65
2022/07/24 14:04:25;;;;;;;6.93;6.32;;;27.30;91.90;;;;;;6202533;28;89100;-65
2022/07/24 14:07:27;;;;;;;7.43;6.72;;;27.30;91.70;;;;;;6200905;28;88334;-65
2022/07/24 14:10:29;;;;;;;7.22;6.63;;;27.30;91.70;;;;;;6197325;28;90256;-65
2022/07/24 14:13:31;;;;;;;7.38;6.68;;;27.30;92.20;;;;;;6194396;28;89120;-65
2022/07/24 14:16:36;;;;;;;7.35;6.75;;;27.30;92.10;;;;;;6193166;28;89038;-65
2022/07/24 14:19:39;;;;;;;7.15;6.47;;;27.30;91.30;;;;;;6201692;28;89037;-65
2022/07/24 14:22:42;;;;;;;8.10;6.88;;;27.30;91.90;;;;;;6190289;28;89096;-65
2022/07/24 14:25:44;;;;;;;7.70;7.03;;;27.30;91.70;;;;;;6203125;28;89120;-66
2022/07/24 14:28:46;;;;;;;7.70;6.93;;;27.30;92.00;;;;;;6205735;28;87870;-65
2022/07/24 14:31:50;;;;;;;7.50;6.80;;;27.30;92.60;;;;;;6199681;28;88262;-65
2022/07/24 14:34:52;;;;;;;7.80;7.13;;;27.40;92.80;;;;;;6204377;28;89340;-65
2022/07/24 14:37:54;;;;;;;7.43;6.82;;;27.30;93.10;;;;;;6210021;28;89209;-65
2022/07/24 14:40:56;;;;;;;7.45;6.78;;;27.30;92.60;;;;;;6209895;28;90124;-65
2022/07/24 14:43:58;;;;;;;7.75;7.03;;;27.30;92.10;;;;;;6209484;28;89547;-64
2022/07/24 14:47:04;;;;;;;6.75;6.22;;;27.30;92.10;;;;;;6209264;28;89277;-65
2022/07/24 14:50:08;;;;;;;7.50;6.82;;;27.30;93.70;;;;;;6207808;28;89712;-65
2022/07/24 14:53:09;;;;;;;8.38;7.30;;;27.40;93.40;;;;;;6186193;28;89011;-65
2022/07/24 14:56:12;;;;;;;7.60;7.00;;;27.30;92.60;;;;;;6210477;28;89300;-65
2022/07/24 14:59:14;;;;;;;7.68;6.97;;;27.30;91.90;;;;;;6196982;28;89432;-65
2022/07/24 15:02:18;;;;;;;7.53;6.82;;;27.40;91.80;;;;;;6207385;28;88526;-65
2022/07/24 15:05:20;;;;;;;8.02;6.65;;;27.40;92.10;;;;;;6203011;28;87964;-65
2022/07/24 15:08:22;;;;;;;7.43;6.70;;;27.30;93.00;;;;;;6190576;28;89078;-64
2022/07/24 15:11:25;;;;;;;7.47;6.78;;;27.40;91.90;;;;;;6204853;28;88862;-65
2022/07/24 15:14:27;;;;;;;7.53;6.82;;;27.40;91.20;;;;;;6200855;28;88816;-64
2022/07/24 15:17:30;;;;;;;7.78;7.07;;;27.40;90.60;;;;;;6208494;28;89190;-65
2022/07/24 15:20:32;;;;;;;7.80;7.20;;;27.30;90.80;;;;;;6201443;28;88992;-65
2022/07/24 15:23:34;;;;;;;7.57;6.95;;;27.40;90.60;;;;;;6198069;28;89036;-64
2022/07/24 15:26:37;;;;;;;8.52;7.82;;;27.40;90.70;;;;;;6184302;28;89080;-65
2022/07/24 15:29:39;;;;;;;8.50;7.80;;;27.40;90.40;;;;;;6185551;28;89333;-65
2022/07/24 15:32:42;;;;;;;7.95;7.30;;;27.30;90.70;;;;;;6198784;28;88434;-65
2022/07/24 15:35:44;;;;;;;7.35;6.75;;;27.30;91.00;;;;;;6197777;28;89082;-64
2022/07/24 15:38:46;;;;;;;7.43;6.82;;;27.30;91.00;;;;;;6196800;28;89022;-64
2022/07/24 15:41:48;;;;;;;7.32;6.57;;;27.30;91.40;;;;;;6194855;28;90012;-64
2022/07/24 15:44:50;;;;;;;7.38;6.78;;;27.40;92.00;;;;;;6209104;28;89527;-65
2022/07/24 15:47:53;;;;;;;7.78;7.00;;;27.30;91.40;;;;;;6198066;28;89102;-65
2022/07/24 15:50:55;;;;;;;7.47;6.78;;;27.30;90.50;;;;;;6192473;28;89438;-65
2022/07/24 15:53:57;;;;;;;7.05;6.53;;;27.40;90.20;;;;;;6208194;28;89091;-65
2022/07/24 15:56:59;;;;;;;7.63;6.95;;;27.30;90.40;;;;;;6190960;28;89473;-65
2022/07/24 16:00:02;;;;;;;7.47;6.80;;;27.30;91.00;;;;;;6185387;28;89046;-65